Portada
METAR-TAF:

METAR-TAF

Aeropuertos :

Aeropuerto de la Ciudad de Derry

Derry, Irlanda del Norte

latitud: 55-03N, longitud: 007-09W, altitud: 9 m

Observación

El informe se hizo hace 4 horas y 49 minutos, a las 19:20 UTC
Viento 12 kt del suroeste
Temperatura 17°C
Humedad 77%
Presión 1026 hPa
Visibilidad 10 km o más
Escasas nubes a una altura de 2200 ft
Cielo nuboso a una altura de 2800 ft

METAR: EGAE 211920Z 22012KT 9999 FEW022 BKN028 17/13 Q1026

Hora: 01:09 (00:09 UTC)

Pronóstico

El informe se hizo hace 7 horas y 10 minutos, a las 16:59 UTC
Pronóstico válido del 21 a las 18 UTC al 21 a las 20 UTC
Viento 13 kt del suroeste
Visibilidad 10 km o más
Escasas nubes a una altura de 2000 ft
Nubes dispersas a una altura de 2500 ft
Probabilidad 30% :
Temporalmente
del 21 a las 18 UTC al 21 a las 20 UTC
Viento 17 kt del oeste-suroeste con ráfagas de 27 kt

TAF: EGAE 211659Z 2118/2120 23013KT 9999 FEW020 SCT025 PROB30 TEMPO 2118/2120 24017G27KT

Observaciones y pronósticos meteorológicos de más de 4000 aeropuertos (mensajes METAR y TAF).

Los puntos amarillos y rojos representan las estaciones disponibles.

Ponga el ratón en el punto deseado para ver el nombre de la estación.

Haga clic para ver las observaciones y los pronósticos meteorológicos.

Para cambiar el mapa : haga clic en los botones verdes con una cruz de color negro para hacer un zoom, en el botón verde con un guión para alejar o en las flechas verdes para mapas adyacentes.


METAR-TAF: